sensor_id;sensor_type;location;lat;lon;timestamp;temperature;humidity
6978;DHT22;3529;53.244;10.414;2022-08-07T09:11:40;19.70;99.90
6978;DHT22;3529;53.244;10.414;2022-08-07T09:14:15;19.90;99.90
6978;DHT22;3529;53.244;10.414;2022-08-07T09:17:07;20.50;99.90
6978;DHT22;3529;53.244;10.414;2022-08-07T09:25:43;24.90;99.90
6978;DHT22;3529;53.244;10.414;2022-08-07T09:28:23;26.30;99.90
6978;DHT22;3529;53.244;10.414;2022-08-07T09:31:03;27.60;99.90
6978;DHT22;3529;53.244;10.414;2022-08-07T09:36:11;29.10;99.90
6978;DHT22;3529;53.244;10.414;2022-08-07T09:54:48;28.90;94.50
6978;DHT22;3529;53.244;10.414;2022-08-07T10:00:13;30.40;92.30
6978;DHT22;3529;53.244;10.414;2022-08-07T10:03:00;31.30;91.50
6978;DHT22;3529;53.244;10.414;2022-08-07T10:13:50;32.00;87.30
6978;DHT22;3529;53.244;10.414;2022-08-07T10:36:03;31.10;74.20
6978;DHT22;3529;53.244;10.414;2022-08-07T10:39:02;30.20;77.60
6978;DHT22;3529;53.244;10.414;2022-08-07T10:41:34;28.60;81.60
6978;DHT22;3529;53.244;10.414;2022-08-07T10:46:32;28.90;86.20
6978;DHT22;3529;53.244;10.414;2022-08-07T10:49:13;29.50;82.80
6978;DHT22;3529;53.244;10.414;2022-08-07T10:54:31;31.30;80.10
6978;DHT22;3529;53.244;10.414;2022-08-07T10:59:50;31.80;75.00
6978;DHT22;3529;53.244;10.414;2022-08-07T11:07:36;33.10;74.60
6978;DHT22;3529;53.244;10.414;2022-08-07T11:10:07;33.00;73.40
6978;DHT22;3529;53.244;10.414;2022-08-07T11:12:42;33.10;70.90
6978;DHT22;3529;53.244;10.414;2022-08-07T11:15:21;33.20;71.30
6978;DHT22;3529;53.244;10.414;2022-08-07T11:17:51;33.20;75.20
6978;DHT22;3529;53.244;10.414;2022-08-07T11:23:16;32.90;75.30
6978;DHT22;3529;53.244;10.414;2022-08-07T11:26:12;32.60;75.70
6978;DHT22;3529;53.244;10.414;2022-08-07T11:28:50;31.70;77.10
6978;DHT22;3529;53.244;10.414;2022-08-07T11:34:15;29.60;81.00
6978;DHT22;3529;53.244;10.414;2022-08-07T11:36:58;28.90;79.60
6978;DHT22;3529;53.244;10.414;2022-08-07T11:42:21;26.50;80.20
6978;DHT22;3529;53.244;10.414;2022-08-07T11:47:40;26.60;84.40
6978;DHT22;3529;53.244;10.414;2022-08-07T12:06:30;28.70;78.70
6978;DHT22;3529;53.244;10.414;2022-08-07T12:09:24;28.20;81.10
6978;DHT22;3529;53.244;10.414;2022-08-07T12:12:03;28.20;83.60
6978;DHT22;3529;53.244;10.414;2022-08-07T12:17:19;28.90;84.60
6978;DHT22;3529;53.244;10.414;2022-08-07T12:20:03;29.20;82.80
6978;DHT22;3529;53.244;10.414;2022-08-07T12:27:51;29.60;78.60
6978;DHT22;3529;53.244;10.414;2022-08-07T12:30:23;29.60;81.10
6978;DHT22;3529;53.244;10.414;2022-08-07T12:32:59;29.70;80.60
6978;DHT22;3529;53.244;10.414;2022-08-07T12:35:27;29.70;80.10
6978;DHT22;3529;53.244;10.414;2022-08-07T12:37:53;29.30;78.50
6978;DHT22;3529;53.244;10.414;2022-08-07T12:40:27;28.70;79.30
6978;DHT22;3529;53.244;10.414;2022-08-07T12:42:56;28.40;80.20
6978;DHT22;3529;53.244;10.414;2022-08-07T12:45:26;28.30;81.20
6978;DHT22;3529;53.244;10.414;2022-08-07T12:53:23;26.50;82.30
6978;DHT22;3529;53.244;10.414;2022-08-07T12:56:25;26.00;83.40
6978;DHT22;3529;53.244;10.414;2022-08-07T12:58:54;26.20;85.90
6978;DHT22;3529;53.244;10.414;2022-08-07T13:04:28;27.10;84.00
6978;DHT22;3529;53.244;10.414;2022-08-07T13:15:49;28.10;84.50
6978;DHT22;3529;53.244;10.414;2022-08-07T13:21:00;28.40;85.00
6978;DHT22;3529;53.244;10.414;2022-08-07T13:23:51;28.30;82.70
6978;DHT22;3529;53.244;10.414;2022-08-07T13:26:38;28.10;80.00
6978;DHT22;3529;53.244;10.414;2022-08-07T13:29:28;28.10;81.90
6978;DHT22;3529;53.244;10.414;2022-08-07T13:32:14;28.10;80.90
6978;DHT22;3529;53.244;10.414;2022-08-07T13:34:59;28.10;82.70
6978;DHT22;3529;53.244;10.414;2022-08-07T13:40:27;28.20;80.70
6978;DHT22;3529;53.244;10.414;2022-08-07T13:42:57;28.00;79.00
6978;DHT22;3529;53.244;10.414;2022-08-07T13:45:24;28.00;80.10
6978;DHT22;3529;53.244;10.414;2022-08-07T13:47:52;28.10;81.50
6978;DHT22;3529;53.244;10.414;2022-08-07T13:50:23;28.10;81.60
6978;DHT22;3529;53.244;10.414;2022-08-07T13:52:49;28.10;81.40
6978;DHT22;3529;53.244;10.414;2022-08-07T13:55:18;27.70;82.00
6978;DHT22;3529;53.244;10.414;2022-08-07T13:57:48;27.60;81.10
6978;DHT22;3529;53.244;10.414;2022-08-07T14:00:14;27.80;80.70
6978;DHT22;3529;53.244;10.414;2022-08-07T14:02:43;28.10;80.70
6978;DHT22;3529;53.244;10.414;2022-08-07T14:05:12;28.10;78.00
6978;DHT22;3529;53.244;10.414;2022-08-07T14:07:45;28.10;81.90
6978;DHT22;3529;53.244;10.414;2022-08-07T14:10:15;28.30;79.70
6978;DHT22;3529;53.244;10.414;2022-08-07T14:12:58;28.30;79.40
6978;DHT22;3529;53.244;10.414;2022-08-07T14:15:39;27.90;80.40
6978;DHT22;3529;53.244;10.414;2022-08-07T14:18:14;27.30;80.40
6978;DHT22;3529;53.244;10.414;2022-08-07T14:20:46;26.90;82.00
6978;DHT22;3529;53.244;10.414;2022-08-07T14:23:25;26.80;80.70
6978;DHT22;3529;53.244;10.414;2022-08-07T14:26:09;26.90;83.20
6978;DHT22;3529;53.244;10.414;2022-08-07T14:28:35;27.00;84.00
6978;DHT22;3529;53.244;10.414;2022-08-07T14:31:04;27.10;80.80
6978;DHT22;3529;53.244;10.414;2022-08-07T14:33:34;26.80;79.80
6978;DHT22;3529;53.244;10.414;2022-08-07T14:36:00;26.70;80.90
6978;DHT22;3529;53.244;10.414;2022-08-07T14:38:29;26.70;80.30
6978;DHT22;3529;53.244;10.414;2022-08-07T14:40:58;26.60;82.50
6978;DHT22;3529;53.244;10.414;2022-08-07T14:43:27;26.70;80.80
6978;DHT22;3529;53.244;10.414;2022-08-07T14:45:58;26.50;81.50
6978;DHT22;3529;53.244;10.414;2022-08-07T14:48:30;26.10;83.60
6978;DHT22;3529;53.244;10.414;2022-08-07T14:50:58;25.70;81.80
6978;DHT22;3529;53.244;10.414;2022-08-07T14:53:32;25.40;81.90
6978;DHT22;3529;53.244;10.414;2022-08-07T14:56:08;25.10;82.50
6978;DHT22;3529;53.244;10.414;2022-08-07T14:58:39;24.90;84.40
6978;DHT22;3529;53.244;10.414;2022-08-07T15:01:05;24.70;84.00
6978;DHT22;3529;53.244;10.414;2022-08-07T15:03:33;24.30;86.70
6978;DHT22;3529;53.244;10.414;2022-08-07T15:06:00;24.00;85.40
6978;DHT22;3529;53.244;10.414;2022-08-07T15:08:34;23.80;86.90
6978;DHT22;3529;53.244;10.414;2022-08-07T15:11:05;23.60;86.90
6978;DHT22;3529;53.244;10.414;2022-08-07T15:13:34;23.40;86.20
6978;DHT22;3529;53.244;10.414;2022-08-07T15:16:05;23.30;86.80
6978;DHT22;3529;53.244;10.414;2022-08-07T15:18:39;23.10;87.60
6978;DHT22;3529;53.244;10.414;2022-08-07T15:21:14;22.90;86.80
6978;DHT22;3529;53.244;10.414;2022-08-07T15:23:42;22.80;88.00
6978;DHT22;3529;53.244;10.414;2022-08-07T15:26:11;22.70;87.60
6978;DHT22;3529;53.244;10.414;2022-08-07T15:28:39;22.60;88.90
6978;DHT22;3529;53.244;10.414;2022-08-07T15:31:09;22.60;88.10
6978;DHT22;3529;53.244;10.414;2022-08-07T15:33:39;22.60;89.10
6978;DHT22;3529;53.244;10.414;2022-08-07T15:36:06;22.90;90.10
6978;DHT22;3529;53.244;10.414;2022-08-07T15:38:36;23.30;89.40
6978;DHT22;3529;53.244;10.414;2022-08-07T15:41:11;23.70;88.80
6978;DHT22;3529;53.244;10.414;2022-08-07T15:43:41;24.00;89.40
6978;DHT22;3529;53.244;10.414;2022-08-07T15:46:20;24.10;89.00
6978;DHT22;3529;53.244;10.414;2022-08-07T15:48:49;24.00;88.30
6978;DHT22;3529;53.244;10.414;2022-08-07T15:51:16;23.80;87.30
6978;DHT22;3529;53.244;10.414;2022-08-07T15:53:48;23.50;88.90
6978;DHT22;3529;53.244;10.414;2022-08-07T15:56:16;23.30;89.70
6978;DHT22;3529;53.244;10.414;2022-08-07T15:58:49;23.40;89.40
6978;DHT22;3529;53.244;10.414;2022-08-07T16:01:25;23.50;89.70
6978;DHT22;3529;53.244;10.414;2022-08-07T16:03:55;23.50;89.90
6978;DHT22;3529;53.244;10.414;2022-08-07T16:06:32;23.60;90.20
6978;DHT22;3529;53.244;10.414;2022-08-07T16:09:12;23.60;90.00
6978;DHT22;3529;53.244;10.414;2022-08-07T16:17:50;23.30;88.50
6978;DHT22;3529;53.244;10.414;2022-08-07T16:20:45;23.20;88.50
6978;DHT22;3529;53.244;10.414;2022-08-07T16:26:41;23.00;88.30
6978;DHT22;3529;53.244;10.414;2022-08-07T16:29:08;23.00;89.80
6978;DHT22;3529;53.244;10.414;2022-08-07T16:37:22;22.70;89.30
6978;DHT22;3529;53.244;10.414;2022-08-07T16:53:38;22.20;89.80
6978;DHT22;3529;53.244;10.414;2022-08-07T16:56:32;22.10;89.90
6978;DHT22;3529;53.244;10.414;2022-08-07T16:59:15;22.10;90.10
6978;DHT22;3529;53.244;10.414;2022-08-07T17:05:10;22.00;90.00
6978;DHT22;3529;53.244;10.414;2022-08-07T17:07:54;22.00;90.70
6978;DHT22;3529;53.244;10.414;2022-08-07T17:19:03;21.90;91.00
6978;DHT22;3529;53.244;10.414;2022-08-07T17:21:44;21.90;90.80
6978;DHT22;3529;53.244;10.414;2022-08-07T17:27:17;21.80;91.20
6978;DHT22;3529;53.244;10.414;2022-08-07T17:35:12;21.80;91.30
6978;DHT22;3529;53.244;10.414;2022-08-07T17:43:27;22.00;91.60
6978;DHT22;3529;53.244;10.414;2022-08-07T17:45:57;22.10;92.10
6978;DHT22;3529;53.244;10.414;2022-08-07T17:48:31;22.10;92.00
6978;DHT22;3529;53.244;10.414;2022-08-07T17:50:59;22.10;92.00
6978;DHT22;3529;53.244;10.414;2022-08-07T17:56:36;22.00;91.60
6978;DHT22;3529;53.244;10.414;2022-08-07T17:59:11;22.00;91.10
6978;DHT22;3529;53.244;10.414;2022-08-07T18:01:56;21.90;91.10
6978;DHT22;3529;53.244;10.414;2022-08-07T18:04:29;21.80;91.80
6978;DHT22;3529;53.244;10.414;2022-08-07T18:09:34;21.50;91.70
6978;DHT22;3529;53.244;10.414;2022-08-07T18:12:14;21.40;91.90
6978;DHT22;3529;53.244;10.414;2022-08-07T18:14:53;21.40;92.10
6978;DHT22;3529;53.244;10.414;2022-08-07T18:20:01;21.20;92.60
6978;DHT22;3529;53.244;10.414;2022-08-07T18:25:16;21.00;92.40
6978;DHT22;3529;53.244;10.414;2022-08-07T18:27:58;20.90;92.20
6978;DHT22;3529;53.244;10.414;2022-08-07T18:30:43;20.80;92.60
6978;DHT22;3529;53.244;10.414;2022-08-07T18:33:56;20.70;92.40
6978;DHT22;3529;53.244;10.414;2022-08-07T18:36:56;20.60;92.40
6978;DHT22;3529;53.244;10.414;2022-08-07T18:42:24;20.30;92.40
6978;DHT22;3529;53.244;10.414;2022-08-07T18:45:08;20.20;92.60
6978;DHT22;3529;53.244;10.414;2022-08-07T18:55:56;19.60;93.90
6978;DHT22;3529;53.244;10.414;2022-08-07T19:04:05;19.20;95.20
6978;DHT22;3529;53.244;10.414;2022-08-07T19:09:15;18.90;95.70
6978;DHT22;3529;53.244;10.414;2022-08-07T19:12:16;18.80;96.00
6978;DHT22;3529;53.244;10.414;2022-08-07T19:17:30;18.50;96.80
6978;DHT22;3529;53.244;10.414;2022-08-07T19:20:06;18.50;97.10
6978;DHT22;3529;53.244;10.414;2022-08-07T19:22:50;18.40;97.60
6978;DHT22;3529;53.244;10.414;2022-08-07T19:25:21;18.30;97.90
6978;DHT22;3529;53.244;10.414;2022-08-07T19:27:47;18.20;98.50
6978;DHT22;3529;53.244;10.414;2022-08-07T19:30:14;18.10;98.40
6978;DHT22;3529;53.244;10.414;2022-08-07T19:32:44;18.00;98.70
6978;DHT22;3529;53.244;10.414;2022-08-07T19:35:21;18.00;99.30
6978;DHT22;3529;53.244;10.414;2022-08-07T19:37:55;17.90;99.60
6978;DHT22;3529;53.244;10.414;2022-08-07T19:40:22;17.80;99.90
6978;DHT22;3529;53.244;10.414;2022-08-07T19:42:49;17.80;99.90
6978;DHT22;3529;53.244;10.414;2022-08-07T19:45:27;17.70;99.90
6978;DHT22;3529;53.244;10.414;2022-08-07T19:47:54;17.60;99.90
6978;DHT22;3529;53.244;10.414;2022-08-07T19:50:23;17.60;99.90
6978;DHT22;3529;53.244;10.414;2022-08-07T19:52:49;17.50;99.90
6978;DHT22;3529;53.244;10.414;2022-08-07T19:55:19;17.40;99.90
6978;DHT22;3529;53.244;10.414;2022-08-07T19:57:48;17.40;99.90
6978;DHT22;3529;53.244;10.414;2022-08-07T20:00:22;17.30;99.90
6978;DHT22;3529;53.244;10.414;2022-08-07T20:02:52;17.20;99.90
6978;DHT22;3529;53.244;10.414;2022-08-07T20:05:40;17.10;99.90
6978;DHT22;3529;53.244;10.414;2022-08-07T20:08:14;17.00;99.90
6978;DHT22;3529;53.244;10.414;2022-08-07T20:10:43;17.00;99.90
6978;DHT22;3529;53.244;10.414;2022-08-07T20:13:17;16.90;99.90
6978;DHT22;3529;53.244;10.414;2022-08-07T20:15:44;16.90;99.90
6978;DHT22;3529;53.244;10.414;2022-08-07T20:18:11;16.80;99.90
6978;DHT22;3529;53.244;10.414;2022-08-07T20:20:37;16.70;99.90
6978;DHT22;3529;53.244;10.414;2022-08-07T20:23:07;16.60;99.90
6978;DHT22;3529;53.244;10.414;2022-08-07T20:25:35;16.50;99.90
6978;DHT22;3529;53.244;10.414;2022-08-07T20:28:07;16.50;99.90
6978;DHT22;3529;53.244;10.414;2022-08-07T20:30:35;16.40;99.90
6978;DHT22;3529;53.244;10.414;2022-08-07T20:33:07;16.30;99.90
6978;DHT22;3529;53.244;10.414;2022-08-07T20:35:45;16.20;99.90
6978;DHT22;3529;53.244;10.414;2022-08-07T20:38:13;16.20;99.90
6978;DHT22;3529;53.244;10.414;2022-08-07T20:40:47;16.10;99.90
6978;DHT22;3529;53.244;10.414;2022-08-07T20:43:16;16.00;99.90
6978;DHT22;3529;53.244;10.414;2022-08-07T20:45:43;16.00;99.90
6978;DHT22;3529;53.244;10.414;2022-08-07T20:48:10;15.90;99.90
6978;DHT22;3529;53.244;10.414;2022-08-07T20:50:38;15.90;99.90
6978;DHT22;3529;53.244;10.414;2022-08-07T20:53:10;15.80;99.90
6978;DHT22;3529;53.244;10.414;2022-08-07T20:55:38;15.80;99.90
6978;DHT22;3529;53.244;10.414;2022-08-07T20:58:06;15.70;99.90
6978;DHT22;3529;53.244;10.414;2022-08-07T21:00:42;15.60;99.90
6978;DHT22;3529;53.244;10.414;2022-08-07T21:03:15;15.60;99.90
6978;DHT22;3529;53.244;10.414;2022-08-07T21:05:47;15.60;99.90
6978;DHT22;3529;53.244;10.414;2022-08-07T21:08:30;15.50;99.90
6978;DHT22;3529;53.244;10.414;2022-08-07T21:10:58;15.50;99.90
6978;DHT22;3529;53.244;10.414;2022-08-07T21:13:26;15.50;99.90
6978;DHT22;3529;53.244;10.414;2022-08-07T21:15:58;15.40;99.90
6978;DHT22;3529;53.244;10.414;2022-08-07T21:18:26;15.50;99.90
6978;DHT22;3529;53.244;10.414;2022-08-07T21:20:55;15.50;99.90
6978;DHT22;3529;53.244;10.414;2022-08-07T21:26:25;15.40;99.90
6978;DHT22;3529;53.244;10.414;2022-08-07T21:28:58;15.40;99.90
6978;DHT22;3529;53.244;10.414;2022-08-07T21:34:13;15.30;99.90
6978;DHT22;3529;53.244;10.414;2022-08-07T21:37:14;15.10;99.90
6978;DHT22;3529;53.244;10.414;2022-08-07T21:39:56;15.10;99.90
6978;DHT22;3529;53.244;10.414;2022-08-07T21:45:02;15.00;99.90
6978;DHT22;3529;53.244;10.414;2022-08-07T21:47:44;15.00;99.90
6978;DHT22;3529;53.244;10.414;2022-08-07T21:50:21;14.90;99.90
6978;DHT22;3529;53.244;10.414;2022-08-07T21:53:02;14.80;99.90
6978;DHT22;3529;53.244;10.414;2022-08-07T21:55:46;14.80;99.90
6978;DHT22;3529;53.244;10.414;2022-08-07T22:01:49;14.60;99.90
6978;DHT22;3529;53.244;10.414;2022-08-07T22:04:15;14.60;99.90
6978;DHT22;3529;53.244;10.414;2022-08-07T22:09:29;14.50;99.90
6978;DHT22;3529;53.244;10.414;2022-08-07T22:12:21;14.40;99.90
6978;DHT22;3529;53.244;10.414;2022-08-07T22:14:54;14.40;99.90
6978;DHT22;3529;53.244;10.414;2022-08-07T22:17:25;14.30;99.90
6978;DHT22;3529;53.244;10.414;2022-08-07T22:22:38;14.20;99.90
6978;DHT22;3529;53.244;10.414;2022-08-07T22:25:18;14.10;99.90
6978;DHT22;3529;53.244;10.414;2022-08-07T22:27:55;14.00;99.90
6978;DHT22;3529;53.244;10.414;2022-08-07T22:30:27;14.00;99.90
6978;DHT22;3529;53.244;10.414;2022-08-07T22:33:08;13.90;99.90
6978;DHT22;3529;53.244;10.414;2022-08-07T22:36:15;13.90;99.90
6978;DHT22;3529;53.244;10.414;2022-08-07T22:38:50;13.80;99.90
6978;DHT22;3529;53.244;10.414;2022-08-07T22:49:21;13.60;99.90
6978;DHT22;3529;53.244;10.414;2022-08-07T23:00:24;13.40;99.90
6978;DHT22;3529;53.244;10.414;2022-08-07T23:03:28;13.40;99.90
6978;DHT22;3529;53.244;10.414;2022-08-07T23:06:35;13.30;99.90
6978;DHT22;3529;53.244;10.414;2022-08-07T23:17:40;13.10;99.90
6978;DHT22;3529;53.244;10.414;2022-08-07T23:20:10;13.00;99.90
6978;DHT22;3529;53.244;10.414;2022-08-07T23:23:31;13.00;99.90
6978;DHT22;3529;53.244;10.414;2022-08-07T23:34:37;12.80;99.90
6978;DHT22;3529;53.244;10.414;2022-08-07T23:45:29;12.60;99.90
6978;DHT22;3529;53.244;10.414;2022-08-07T23:48:25;12.50;99.90
6978;DHT22;3529;53.244;10.414;2022-08-07T23:50:58;12.50;99.90
6978;DHT22;3529;53.244;10.414;2022-08-07T23:56:25;12.40;99.90
